createdAt,value
2023-01-08T00:01:10.436Z,89.34
2023-01-08T00:03:38.280Z,89.37
2023-01-08T00:06:07.076Z,88.94
2023-01-08T00:08:33.900Z,89.34
2023-01-08T00:11:01.530Z,89.39
2023-01-08T00:13:28.803Z,89.03
2023-01-08T00:15:55.713Z,89.39
2023-01-08T00:18:22.600Z,89.38
2023-01-08T00:20:49.259Z,89.42
2023-01-08T00:23:19.155Z,89.48
2023-01-08T00:25:46.596Z,89.60
2023-01-08T00:28:15.136Z,89.41
2023-01-08T00:30:42.823Z,89.35
2023-01-08T00:33:10.737Z,89.71
2023-01-08T00:35:41.046Z,89.35
2023-01-08T00:38:08.076Z,89.54
2023-01-08T00:40:36.205Z,89.42
2023-01-08T00:43:03.580Z,89.16
2023-01-08T00:45:30.498Z,89.33
2023-01-08T00:47:57.356Z,89.45
2023-01-08T00:50:24.571Z,89.17
2023-01-08T00:52:51.277Z,89.50
2023-01-08T00:55:18.122Z,89.42
2023-01-08T00:57:44.906Z,89.62
2023-01-08T01:00:15.370Z,89.46
2023-01-08T01:02:42.128Z,89.69
2023-01-08T01:05:10.855Z,89.29
2023-01-08T01:07:37.603Z,89.38
2023-01-08T01:10:04.829Z,89.29
2023-01-08T01:12:31.510Z,89.41
2023-01-08T01:14:58.273Z,89.41
2023-01-08T01:17:25.088Z,89.43
2023-01-08T01:19:51.817Z,89.40
2023-01-08T01:22:18.495Z,89.65
2023-01-08T01:24:45.136Z,89.22
2023-01-08T01:27:11.783Z,89.24
2023-01-08T01:29:38.549Z,89.34
2023-01-08T01:32:06.226Z,89.35
2023-01-08T01:34:33.034Z,89.44
2023-01-08T01:36:59.768Z,89.71
2023-01-08T01:39:26.773Z,89.32
2023-01-08T01:41:53.548Z,89.77
2023-01-08T01:44:43.213Z,89.12
2023-01-08T01:47:12.816Z,89.55
2023-01-08T01:49:43.549Z,89.66
2023-01-08T01:52:11.761Z,89.51
2023-01-08T01:54:38.682Z,89.34
2023-01-08T01:57:07.873Z,89.39
2023-01-08T01:59:34.641Z,89.44
2023-01-08T02:02:01.613Z,89.49
2023-01-08T02:04:28.386Z,89.33
2023-01-08T02:07:00.047Z,89.06
2023-01-08T02:09:48.091Z,89.33
2023-01-08T02:12:23.263Z,89.44
2023-01-08T02:15:30.548Z,89.68
2023-01-08T02:18:06.087Z,89.20
2023-01-08T02:20:37.462Z,89.61
2023-01-08T02:23:27.781Z,89.46
2023-01-08T02:26:04.561Z,89.15
2023-01-08T02:28:34.366Z,89.39
2023-01-08T02:31:01.474Z,89.46
2023-01-08T02:33:29.819Z,89.33
2023-01-08T02:36:30.061Z,89.34
2023-01-08T02:39:16.845Z,89.09
2023-01-08T02:42:06.785Z,89.28
2023-01-08T02:44:48.738Z,89.60
2023-01-08T02:47:27.805Z,89.27
2023-01-08T02:50:03.627Z,89.24
2023-01-08T02:52:33.061Z,89.15
2023-01-08T02:55:03.123Z,89.31
2023-01-08T02:57:32.734Z,89.68
2023-01-08T02:59:59.395Z,89.66
2023-01-08T03:02:32.191Z,89.29
2023-01-08T03:05:06.545Z,89.48
2023-01-08T03:07:34.139Z,89.19
2023-01-08T03:10:01.215Z,89.49
2023-01-08T03:13:03.071Z,89.35
2023-01-08T03:15:40.741Z,89.38
2023-01-08T03:18:13.768Z,89.53
2023-01-08T03:20:41.371Z,89.18
2023-01-08T03:23:11.226Z,89.51
2023-01-08T03:25:41.712Z,89.26
2023-01-08T03:28:15.788Z,89.39
2023-01-08T03:30:44.279Z,89.18
2023-01-08T03:33:13.374Z,88.97
2023-01-08T03:35:43.014Z,89.14
2023-01-08T03:38:29.415Z,89.45
2023-01-08T03:41:09.714Z,89.19
2023-01-08T03:43:36.511Z,89.14
2023-01-08T03:46:08.250Z,89.19
2023-01-08T03:48:36.546Z,89.28
2023-01-08T03:51:03.348Z,89.45
2023-01-08T03:53:30.159Z,89.56
2023-01-08T03:55:58.637Z,89.42
2023-01-08T03:58:25.407Z,89.32
2023-01-08T04:00:52.779Z,89.17
2023-01-08T04:03:19.672Z,89.43
2023-01-08T04:05:46.599Z,89.70
2023-01-08T04:08:13.350Z,89.65
2023-01-08T04:10:40.189Z,89.20
2023-01-08T04:13:06.853Z,89.23
2023-01-08T04:15:34.398Z,89.72
2023-01-08T04:18:01.104Z,89.56
2023-01-08T04:20:27.815Z,89.71
2023-01-08T04:22:54.459Z,89.48
2023-01-08T04:25:21.334Z,89.56
2023-01-08T04:27:48.076Z,89.48
2023-01-08T04:30:14.733Z,89.54
2023-01-08T04:32:41.445Z,89.56
2023-01-08T04:35:08.560Z,89.42
2023-01-08T04:37:35.335Z,89.53
2023-01-08T04:40:02.006Z,89.90
2023-01-08T04:42:28.737Z,89.40
2023-01-08T04:44:55.410Z,89.69
2023-01-08T04:47:22.079Z,89.62
2023-01-08T04:49:48.759Z,89.35
2023-01-08T04:52:15.412Z,89.67
2023-01-08T04:54:42.069Z,89.69
2023-01-08T04:57:08.792Z,89.35
2023-01-08T04:59:35.542Z,89.63
2023-01-08T05:02:02.415Z,89.46
2023-01-08T05:04:29.246Z,89.70
2023-01-08T05:06:55.986Z,89.55
2023-01-08T05:09:22.874Z,89.75
2023-01-08T05:11:49.657Z,89.72
2023-01-08T05:14:19.999Z,89.51
2023-01-08T05:16:47.589Z,89.66
2023-01-08T05:19:14.400Z,89.72
2023-01-08T05:21:41.095Z,89.66
2023-01-08T05:24:09.354Z,89.72
2023-01-08T05:26:42.331Z,89.43
2023-01-08T05:29:10.477Z,89.53
2023-01-08T05:31:37.181Z,89.56
2023-01-08T05:34:08.164Z,89.48
2023-01-08T05:36:35.263Z,89.58
2023-01-08T05:39:01.928Z,89.60
2023-01-08T05:41:28.640Z,89.57
2023-01-08T05:43:58.416Z,89.62
2023-01-08T05:46:27.709Z,89.46
2023-01-08T05:48:54.425Z,89.82
2023-01-08T05:51:21.188Z,89.83
2023-01-08T05:53:47.827Z,89.53
2023-01-08T05:56:14.637Z,89.54
2023-01-08T05:58:41.434Z,89.72
2023-01-08T06:01:13.299Z,89.57
2023-01-08T06:03:40.277Z,89.81
2023-01-08T06:06:08.255Z,89.70
2023-01-08T06:08:35.396Z,89.49
2023-01-08T06:11:09.308Z,89.49
2023-01-08T06:13:38.070Z,89.29
2023-01-08T06:16:05.588Z,89.52
2023-01-08T06:18:32.364Z,89.67
2023-01-08T06:20:59.064Z,89.80
2023-01-08T06:23:26.140Z,89.79
2023-01-08T06:25:54.540Z,89.43
2023-01-08T06:28:22.634Z,89.55
2023-01-08T06:30:49.789Z,89.63
2023-01-08T06:33:22.698Z,89.46
2023-01-08T06:35:49.383Z,89.57
2023-01-08T06:38:16.289Z,89.62
2023-01-08T06:40:42.965Z,89.51
2023-01-08T06:43:09.646Z,89.85
2023-01-08T06:45:36.527Z,89.92
2023-01-08T06:48:05.500Z,89.52
2023-01-08T06:50:35.900Z,89.63
2023-01-08T06:53:02.632Z,89.80
2023-01-08T06:55:29.529Z,90.10
2023-01-08T06:58:01.990Z,90.00
2023-01-08T07:00:28.727Z,89.71
2023-01-08T07:02:58.832Z,89.80
2023-01-08T07:05:25.598Z,89.72
2023-01-08T07:07:59.057Z,89.73
2023-01-08T07:10:26.879Z,89.96
2023-01-08T07:12:53.617Z,89.82
2023-01-08T07:15:20.319Z,89.84
2023-01-08T07:17:47.128Z,89.83
2023-01-08T07:20:14.048Z,89.80
2023-01-08T07:22:41.114Z,89.76
2023-01-08T07:25:10.315Z,89.64
2023-01-08T07:27:37.099Z,89.78
2023-01-08T07:30:07.265Z,89.89
2023-01-08T07:32:36.134Z,89.89
2023-01-08T07:35:03.210Z,90.09
2023-01-08T07:37:32.172Z,89.94
2023-01-08T07:40:00.909Z,89.94
2023-01-08T07:42:30.355Z,90.00
2023-01-08T07:44:57.000Z,89.86
2023-01-08T07:47:23.667Z,89.82
2023-01-08T07:49:52.721Z,90.09
2023-01-08T07:52:19.464Z,90.04
2023-01-08T07:54:46.186Z,89.99
2023-01-08T07:57:12.876Z,90.01
2023-01-08T07:59:39.523Z,89.90
2023-01-08T08:02:11.262Z,90.00
2023-01-08T08:04:38.236Z,89.83
2023-01-08T08:07:04.973Z,89.92
2023-01-08T08:09:31.651Z,89.84
2023-01-08T08:11:58.675Z,89.59
2023-01-08T08:14:25.359Z,89.81
2023-01-08T08:16:51.982Z,89.98
2023-01-08T08:19:18.741Z,90.23
2023-01-08T08:21:45.403Z,90.05
2023-01-08T08:24:12.184Z,89.92
2023-01-08T08:26:38.887Z,90.05
2023-01-08T08:29:05.568Z,89.90
2023-01-08T08:31:32.345Z,90.02
2023-01-08T08:33:59.062Z,89.78
2023-01-08T08:36:29.615Z,89.80
2023-01-08T08:38:57.130Z,89.95
2023-01-08T08:41:23.996Z,90.22
2023-01-08T08:43:51.489Z,90.00
2023-01-08T08:46:18.456Z,89.93
2023-01-08T08:48:46.364Z,89.73
2023-01-08T08:51:14.108Z,89.91
2023-01-08T08:53:40.748Z,90.23
2023-01-08T08:56:07.794Z,90.23
2023-01-08T08:58:34.449Z,90.08
2023-01-08T09:01:03.854Z,90.41
2023-01-08T09:03:30.914Z,90.11
2023-01-08T09:05:59.766Z,90.32
2023-01-08T09:08:27.016Z,90.22
2023-01-08T09:10:53.689Z,90.42
2023-01-08T09:13:20.746Z,90.10
2023-01-08T09:15:47.517Z,90.10
2023-01-08T09:18:15.978Z,90.55
2023-01-08T09:20:42.846Z,90.25
2023-01-08T09:23:09.860Z,90.36
2023-01-08T09:25:36.571Z,90.09
2023-01-08T09:28:06.417Z,90.23
2023-01-08T09:30:33.686Z,90.05
2023-01-08T09:33:02.906Z,90.35
2023-01-08T09:35:30.659Z,90.06
2023-01-08T09:37:57.433Z,90.40
2023-01-08T09:40:28.896Z,90.31
2023-01-08T09:43:01.721Z,90.20
2023-01-08T09:45:31.206Z,90.58
2023-01-08T09:48:05.840Z,89.92
2023-01-08T09:50:33.933Z,90.34
2023-01-08T09:53:01.481Z,90.10
2023-01-08T09:55:32.925Z,89.85
2023-01-08T09:58:03.019Z,89.78
2023-01-08T10:00:34.007Z,90.11
2023-01-08T10:03:00.885Z,90.43
2023-01-08T10:05:28.552Z,90.32
2023-01-08T10:07:55.572Z,90.36
2023-01-08T10:10:26.316Z,90.19
2023-01-08T10:12:54.526Z,90.45
2023-01-08T10:15:22.725Z,90.26
2023-01-08T10:18:20.949Z,90.16
2023-01-08T10:20:47.591Z,90.40
2023-01-08T10:23:19.818Z,90.49
2023-01-08T10:25:53.197Z,90.04
2023-01-08T10:28:31.076Z,90.30
2023-01-08T10:31:06.429Z,90.32
2023-01-08T10:33:42.085Z,90.10
2023-01-08T10:36:12.097Z,90.39
2023-01-08T10:38:50.972Z,90.01
2023-01-08T10:41:18.644Z,90.44
2023-01-08T10:44:07.545Z,90.54
2023-01-08T10:46:47.686Z,90.16
2023-01-08T10:49:33.642Z,90.20
2023-01-08T10:52:00.926Z,90.59
2023-01-08T10:54:31.142Z,90.28
2023-01-08T10:56:59.363Z,90.61
2023-01-08T10:59:27.359Z,90.15
2023-01-08T11:01:58.472Z,90.37
2023-01-08T11:04:34.329Z,90.16
2023-01-08T11:07:03.684Z,90.26
2023-01-08T11:09:39.608Z,90.39
2023-01-08T11:12:27.249Z,90.21
2023-01-08T11:14:53.946Z,90.51
2023-01-08T11:17:24.723Z,90.10
2023-01-08T11:19:51.592Z,90.44
2023-01-08T11:22:23.597Z,90.24
2023-01-08T11:24:52.148Z,90.65
2023-01-08T11:27:26.908Z,90.40
2023-01-08T11:30:22.013Z,90.17
2023-01-08T11:33:02.652Z,91.10
2023-01-08T11:35:36.168Z,91.09
2023-01-08T11:38:03.470Z,91.09
2023-01-08T11:40:50.650Z,90.59
2023-01-08T11:43:31.805Z,90.60
2023-01-08T11:46:25.906Z,90.69
2023-01-08T11:49:32.962Z,91.01
2023-01-08T11:52:18.019Z,91.20
2023-01-08T11:55:06.944Z,90.56
2023-01-08T11:57:33.553Z,91.14
2023-01-08T12:00:35.657Z,90.50
2023-01-08T12:03:08.546Z,91.04
2023-01-08T12:05:50.751Z,90.53
2023-01-08T12:08:33.628Z,90.66
2023-01-08T12:11:29.331Z,90.64
2023-01-08T12:14:23.898Z,90.73
2023-01-08T12:16:56.344Z,90.60
2023-01-08T12:19:45.372Z,91.05
2023-01-08T12:22:17.765Z,90.49
2023-01-08T12:25:05.570Z,90.97
2023-01-08T12:27:56.462Z,90.96
2023-01-08T12:30:39.384Z,90.80
2023-01-08T12:33:12.382Z,90.88
2023-01-08T12:35:44.154Z,91.35
2023-01-08T12:38:16.881Z,90.94
2023-01-08T12:40:54.607Z,90.49
2023-01-08T12:43:32.416Z,91.32
2023-01-08T12:46:01.639Z,90.94
2023-01-08T12:48:31.786Z,91.21
2023-01-08T12:51:21.841Z,90.80
2023-01-08T12:54:06.805Z,90.70
2023-01-08T12:57:21.677Z,91.28
2023-01-08T13:00:04.177Z,90.97
2023-01-08T13:02:49.927Z,91.02
2023-01-08T13:05:19.287Z,90.80
2023-01-08T13:07:52.785Z,90.75
2023-01-08T13:10:29.800Z,91.49
2023-01-08T13:12:57.699Z,91.33
2023-01-08T13:15:27.207Z,91.20
2023-01-08T13:18:03.164Z,91.04
2023-01-08T13:20:32.185Z,91.23
2023-01-08T13:23:05.781Z,91.04
2023-01-08T13:25:37.554Z,90.98
2023-01-08T13:28:43.816Z,91.58
2023-01-08T13:31:22.778Z,90.94
2023-01-08T13:33:52.623Z,90.96
2023-01-08T13:36:28.585Z,91.06
2023-01-08T13:39:20.276Z,90.89
2023-01-08T13:42:13.211Z,91.58
2023-01-08T13:44:47.004Z,91.40
2023-01-08T13:47:25.439Z,90.94
2023-01-08T13:49:54.926Z,90.69
2023-01-08T13:52:32.649Z,91.47
2023-01-08T13:55:03.443Z,91.33
2023-01-08T13:57:38.112Z,90.94
2023-01-08T14:00:08.987Z,91.52
2023-01-08T14:02:50.488Z,90.92
2023-01-08T14:05:23.055Z,91.22
2023-01-08T14:07:49.812Z,91.13
2023-01-08T14:10:17.044Z,90.93
2023-01-08T14:12:44.172Z,91.40
2023-01-08T14:15:22.769Z,91.32
2023-01-08T14:17:50.072Z,90.77
2023-01-08T14:20:24.784Z,90.98
2023-01-08T14:22:51.693Z,91.44
2023-01-08T14:25:22.479Z,90.87
2023-01-08T14:27:58.344Z,91.69
2023-01-08T14:30:25.431Z,91.40
2023-01-08T14:32:53.125Z,91.42
2023-01-08T14:35:28.581Z,91.07
2023-01-08T14:37:55.955Z,91.08
2023-01-08T14:40:59.970Z,91.33
2023-01-08T14:43:27.541Z,90.90
2023-01-08T14:45:54.938Z,91.56
2023-01-08T14:48:31.363Z,91.26
2023-01-08T14:51:20.705Z,91.71
2023-01-08T14:54:15.161Z,91.50
2023-01-08T14:56:41.897Z,91.22
2023-01-08T14:59:11.454Z,91.45
2023-01-08T15:01:38.692Z,91.23
2023-01-08T15:04:17.961Z,91.02
2023-01-08T15:06:44.854Z,91.45
2023-01-08T15:09:22.849Z,91.47
2023-01-08T15:12:00.029Z,90.98
2023-01-08T15:14:29.283Z,91.39
2023-01-08T15:16:59.531Z,91.17
2023-01-08T15:19:35.184Z,91.29
2023-01-08T15:22:02.424Z,91.42
2023-01-08T15:24:32.218Z,90.84
2023-01-08T15:27:09.765Z,90.98
2023-01-08T15:29:47.080Z,91.15
2023-01-08T15:32:16.475Z,90.85
2023-01-08T15:34:44.442Z,91.19
2023-01-08T15:37:12.520Z,91.14
2023-01-08T15:39:39.193Z,91.18
2023-01-08T15:42:51.009Z,91.43
2023-01-08T15:45:35.390Z,91.24
2023-01-08T15:48:02.065Z,91.59
2023-01-08T15:50:35.366Z,91.26
2023-01-08T15:53:02.738Z,91.26
2023-01-08T15:55:32.455Z,91.21
2023-01-08T15:57:59.286Z,91.45
2023-01-08T16:00:26.230Z,91.09
2023-01-08T16:02:54.310Z,91.20
2023-01-08T16:05:23.959Z,91.04
2023-01-08T16:07:51.671Z,91.03
2023-01-08T16:10:18.921Z,91.64
2023-01-08T16:12:47.194Z,91.01
2023-01-08T16:15:15.490Z,91.49
2023-01-08T16:17:43.239Z,90.84
2023-01-08T16:20:11.280Z,91.58
2023-01-08T16:22:43.843Z,91.05
2023-01-08T16:25:11.084Z,91.13
2023-01-08T16:27:45.557Z,90.98
2023-01-08T16:30:16.242Z,91.06
2023-01-08T16:32:50.955Z,91.22
2023-01-08T16:35:17.661Z,91.48
2023-01-08T16:37:44.365Z,91.42
2023-01-08T16:40:11.815Z,91.17
2023-01-08T16:42:38.630Z,90.95
2023-01-08T16:45:05.946Z,91.41
2023-01-08T16:47:37.383Z,90.92
2023-01-08T16:50:04.946Z,91.30
2023-01-08T16:52:31.620Z,91.11
2023-01-08T16:54:58.279Z,91.30
2023-01-08T16:57:24.982Z,90.98
2023-01-08T16:59:51.611Z,90.98
2023-01-08T17:02:19.362Z,91.44
2023-01-08T17:04:46.004Z,91.01
2023-01-08T17:07:15.890Z,90.92
2023-01-08T17:09:45.630Z,90.88
2023-01-08T17:12:12.293Z,91.05
2023-01-08T17:14:38.955Z,91.53
2023-01-08T17:17:05.713Z,91.13
2023-01-08T17:19:32.802Z,91.35
2023-01-08T17:22:02.629Z,91.11
2023-01-08T17:24:29.356Z,91.55
2023-01-08T17:26:57.742Z,91.29
2023-01-08T17:29:24.575Z,91.22
2023-01-08T17:31:51.326Z,90.89
2023-01-08T17:34:21.052Z,91.33
2023-01-08T17:36:47.703Z,91.39
2023-01-08T17:39:14.354Z,91.01
2023-01-08T17:42:05.107Z,91.25
2023-01-08T17:44:31.793Z,91.22
2023-01-08T17:46:58.445Z,91.02
2023-01-08T17:49:27.858Z,91.35
2023-01-08T17:51:54.546Z,91.34
2023-01-08T17:54:22.469Z,90.92
2023-01-08T17:56:52.281Z,91.44
2023-01-08T17:59:20.688Z,91.35
2023-01-08T18:01:48.443Z,90.97
2023-01-08T18:04:15.818Z,91.16
2023-01-08T18:06:43.357Z,91.09
2023-01-08T18:09:16.168Z,90.98
2023-01-08T18:11:43.288Z,91.17
2023-01-08T18:14:12.282Z,90.97
2023-01-08T18:16:39.329Z,91.05
2023-01-08T18:19:06.611Z,91.23
2023-01-08T18:21:35.438Z,91.45
2023-01-08T18:24:02.137Z,90.86
2023-01-08T18:26:29.274Z,90.72
2023-01-08T18:28:56.122Z,90.96
2023-01-08T18:31:23.007Z,91.02
2023-01-08T18:33:57.559Z,91.48
2023-01-08T18:36:24.329Z,90.74
2023-01-08T18:38:51.587Z,91.12
2023-01-08T18:41:40.616Z,90.82
2023-01-08T18:44:09.027Z,91.21
2023-01-08T18:46:36.169Z,90.88
2023-01-08T18:49:03.292Z,90.82
2023-01-08T18:51:29.957Z,91.00
2023-01-08T18:53:59.407Z,90.98
2023-01-08T18:56:31.639Z,91.01
2023-01-08T18:58:58.863Z,90.85
2023-01-08T19:01:26.147Z,90.90
2023-01-08T19:03:55.478Z,90.80
2023-01-08T19:06:22.744Z,90.79
2023-01-08T19:08:49.690Z,90.96
2023-01-08T19:11:19.930Z,90.88
2023-01-08T19:13:49.224Z,90.91
2023-01-08T19:16:18.668Z,90.86
2023-01-08T19:18:45.403Z,91.42
2023-01-08T19:21:17.528Z,90.86
2023-01-08T19:23:47.729Z,91.30
2023-01-08T19:26:14.952Z,90.92
2023-01-08T19:28:42.812Z,90.75
2023-01-08T19:31:13.107Z,90.86
2023-01-08T19:33:40.633Z,90.69
2023-01-08T19:36:12.486Z,90.92
2023-01-08T19:38:40.456Z,90.90
2023-01-08T19:41:28.011Z,90.76
2023-01-08T19:43:56.723Z,90.79
2023-01-08T19:46:23.997Z,90.95
2023-01-08T19:48:50.850Z,90.82
2023-01-08T19:51:17.686Z,90.51
2023-01-08T19:53:44.444Z,90.94
2023-01-08T19:56:13.519Z,91.11
2023-01-08T19:58:40.542Z,90.86
2023-01-08T20:01:22.685Z,90.81
2023-01-08T20:03:50.139Z,90.80
2023-01-08T20:06:19.968Z,90.58
2023-01-08T20:08:50.739Z,90.63
2023-01-08T20:11:17.870Z,90.75
2023-01-08T20:13:44.773Z,90.29
2023-01-08T20:16:14.350Z,91.09
2023-01-08T20:18:41.702Z,90.59
2023-01-08T20:21:11.603Z,90.81
2023-01-08T20:23:39.106Z,90.46
2023-01-08T20:26:07.814Z,90.50
2023-01-08T20:28:36.381Z,90.64
2023-01-08T20:31:15.248Z,90.46
2023-01-08T20:33:42.822Z,90.85
2023-01-08T20:36:12.006Z,90.67
2023-01-08T20:38:38.781Z,90.73
2023-01-08T20:41:06.863Z,90.46
2023-01-08T20:43:34.541Z,90.35
2023-01-08T20:46:01.670Z,90.64
2023-01-08T20:48:31.991Z,90.53
2023-01-08T20:51:03.988Z,90.67
2023-01-08T20:53:33.683Z,90.82
2023-01-08T20:56:15.012Z,90.60
2023-01-08T20:58:46.010Z,90.60
2023-01-08T21:01:19.357Z,90.77
2023-01-08T21:03:47.132Z,90.80
2023-01-08T21:06:19.884Z,90.77
2023-01-08T21:08:49.307Z,90.75
2023-01-08T21:11:16.567Z,90.61
2023-01-08T21:13:43.554Z,90.49
2023-01-08T21:16:18.437Z,90.63
2023-01-08T21:18:47.648Z,90.50
2023-01-08T21:21:23.108Z,90.58
2023-01-08T21:23:50.563Z,90.58
2023-01-08T21:26:18.421Z,90.59
2023-01-08T21:28:46.585Z,90.56
2023-01-08T21:31:16.690Z,90.50
2023-01-08T21:33:47.613Z,90.42
2023-01-08T21:36:20.296Z,90.31
2023-01-08T21:38:47.439Z,90.63
2023-01-08T21:41:38.350Z,90.33
2023-01-08T21:44:28.181Z,90.33
2023-01-08T21:46:54.896Z,90.45
2023-01-08T21:49:21.598Z,90.24
2023-01-08T21:52:06.878Z,90.73
2023-01-08T21:54:33.522Z,90.41
2023-01-08T21:57:00.204Z,90.15
2023-01-08T21:59:26.918Z,90.48
2023-01-08T22:01:53.654Z,90.69
2023-01-08T22:04:20.366Z,90.59
2023-01-08T22:06:47.136Z,90.77
2023-01-08T22:09:13.775Z,90.65
2023-01-08T22:11:40.474Z,90.60
2023-01-08T22:14:07.127Z,90.64
2023-01-08T22:16:33.921Z,90.71
2023-01-08T22:19:00.712Z,90.58
2023-01-08T22:21:27.452Z,90.55
2023-01-08T22:23:55.889Z,90.56
2023-01-08T22:26:23.618Z,90.28
2023-01-08T22:28:50.514Z,90.78
2023-01-08T22:31:17.354Z,90.50
2023-01-08T22:33:44.314Z,90.46
2023-01-08T22:36:13.506Z,90.32
2023-01-08T22:38:40.485Z,90.49
2023-01-08T22:41:16.610Z,90.05
2023-01-08T22:43:43.350Z,90.33
2023-01-08T22:46:13.573Z,90.70
2023-01-08T22:48:40.459Z,90.14
2023-01-08T22:51:07.436Z,90.10
2023-01-08T22:53:35.034Z,90.01
2023-01-08T22:56:01.755Z,90.26
2023-01-08T22:58:29.311Z,90.24
2023-01-08T23:00:55.972Z,90.22
2023-01-08T23:03:22.614Z,90.42
2023-01-08T23:05:49.267Z,90.39
2023-01-08T23:08:15.955Z,90.13
2023-01-08T23:10:42.806Z,90.25
2023-01-08T23:13:09.438Z,90.23
2023-01-08T23:15:36.099Z,90.09
2023-01-08T23:18:02.818Z,90.36
2023-01-08T23:20:29.450Z,90.28
2023-01-08T23:23:02.140Z,90.58
2023-01-08T23:25:30.201Z,89.92
2023-01-08T23:27:56.851Z,90.16
2023-01-08T23:30:23.738Z,90.36
2023-01-08T23:32:50.470Z,90.05
2023-01-08T23:35:17.124Z,90.36
2023-01-08T23:37:43.771Z,90.09
2023-01-08T23:40:11.262Z,90.28
2023-01-08T23:42:37.959Z,90.32
2023-01-08T23:45:05.166Z,89.96
2023-01-08T23:47:31.933Z,90.19
2023-01-08T23:49:58.624Z,89.94
2023-01-08T23:52:25.477Z,89.96
2023-01-08T23:54:52.117Z,89.91
2023-01-08T23:57:18.780Z,89.84
2023-01-08T23:59:45.429Z,90.19
